Aeroporto :







RITROVATECI SU...

 
LOGIN :

Iscrizione | Disclaimer

   EN    FR    IT 

 









Sommario :    VFR   VFR Marginale   IFR   IFR Intensivo   IFR Molto Intensivo
Visibilità : 
Base nubi : 
>= 8 km
>= 3000ft
5 / 8 km
1000 / 3000 ft
1500m / 5 km
500 / 1000 ft
800 / 1500m
200 / 500 ft
< 800m
< 200 ft
Simboli :   Temporali  Nebbia  Neve Forte  Precipitazioni Forti  Vento > 20 kt






- Altitudine del aeroporto : 14 ft
- Codice IATA : UVF


TLPL - Hewanorra Int.

ULTIMO METAR :
  • 151800Z 10013KT 9999 FEW018TCU SCT028 31/25 Q1013 NOSIG

METARs OBSOLETI :
  • 151700Z 10013KT 9999 FEW029 31/25 Q1013 NOSIG
  • 151600Z 11013KT 9999 FEW029 30/24 Q1014 NOSIG

TAF TAF TLPL
Valido dal 15 a 18 ore il 16 a 18 ore UTC


151700Z 1518/1618 10013KT 9999 SCT025
TEMPO 1603/1612 5000 SHRA BKN015TCU
FIR TTZP / America del Nord



MetMap, La meteo Aeronautica in un colpo d'occhio ! - Copyright ORBIFLY Dicembre 2007 - Disclaimer

ORBIFLY MET'MAP TEAM :

Programmazione e sviluppo : Alexandra Zaïnal
Concezione : Baudouin d'Aumeries
Aiuto per la programmazione : Marc-Olivier Méhu
Supporto tecnico e logistico : Manuel Goepfert
Aiuto per la traduzione : Arnaldo La Scala

Contatto : metmap@orbifly.com




FONTI E CREDITI :

   NOAA